BAW45 EGKK-LEMD
Flight info
| Callsign | BAW45 |
|---|---|
| Flight time | N/A |
| Altitude | 37000 |
| Route | NOVMA DCT HAZEL L620 SAM M195 MARUK N621 LELNA DCT NOVAN DCT DELOG N864 NONTU |
| Aircraft | B772/H-SDE2E3FGHIJ5LORVWXY/LB1D1 |
Departure
| Time | 2026-04-16 15:14 |
|---|---|
| Airport | London Gatwick Airport (EGKK) |
Arrival
| Time | N/A |
|---|---|
| Airport | Adolfo Suárez Madrid–Barajas Airport (LEMD) |
| Time | Latitude | Longitude | Altitude | Speed | Heading |
|---|---|---|---|---|---|
| 2026-04-16 14:53 | 51.15584 | -0.16908 | 209 ft | 0 kts | 167° |
| 2026-04-16 15:05 | 51.15597 | -0.16913 | 219 ft | 4 kts | 167° |
| 2026-04-16 15:05 | 51.15623 | -0.16922 | 220 ft | 3 kts | 167° |
| 2026-04-16 15:06 | 51.15644 | -0.16927 | 221 ft | 4 kts | 192° |
| 2026-04-16 15:06 | 51.15660 | -0.16916 | 222 ft | 4 kts | 243° |
| 2026-04-16 15:06 | 51.15667 | -0.16877 | 216 ft | 4 kts | 258° |
| 2026-04-16 15:06 | 51.15669 | -0.16866 | 215 ft | 0 kts | 257° |
| 2026-04-16 15:09 | 51.15656 | -0.16954 | 215 ft | 18 kts | 257° |
| 2026-04-16 15:09 | 51.15631 | -0.17129 | 218 ft | 14 kts | 257° |
| 2026-04-16 15:10 | 51.15609 | -0.17280 | 215 ft | 14 kts | 256° |
| 2026-04-16 15:10 | 51.15589 | -0.17326 | 219 ft | 2 kts | 196° |
| 2026-04-16 15:10 | 51.15575 | -0.17323 | 219 ft | 2 kts | 172° |
| 2026-04-16 15:10 | 51.15562 | -0.17320 | 216 ft | 2 kts | 171° |
| 2026-04-16 15:11 | 51.15523 | -0.17308 | 214 ft | 11 kts | 168° |
| 2026-04-16 15:11 | 51.15426 | -0.17274 | 218 ft | 15 kts | 167° |
| 2026-04-16 15:11 | 51.15324 | -0.17239 | 215 ft | 15 kts | 167° |
| 2026-04-16 15:11 | 51.15232 | -0.17164 | 221 ft | 15 kts | 142° |
| 2026-04-16 15:12 | 51.15200 | -0.17101 | 218 ft | 7 kts | 104° |
| 2026-04-16 15:12 | 51.15206 | -0.17024 | 213 ft | 7 kts | 78° |
| 2026-04-16 15:12 | 51.15217 | -0.16949 | 220 ft | 7 kts | 78° |
| 2026-04-16 15:12 | 51.15223 | -0.16897 | 216 ft | 2 kts | 78° |
| 2026-04-16 15:13 | 51.15222 | -0.16864 | 215 ft | 8 kts | 103° |
| 2026-04-16 15:13 | 51.15157 | -0.16809 | 218 ft | 1 kts | 175° |
| 2026-04-16 15:13 | 51.15141 | -0.16808 | 219 ft | 6 kts | 181° |
| 2026-04-16 15:13 | 51.15112 | -0.16850 | 216 ft | 6 kts | 256° |
| 2026-04-16 15:14 | 51.15105 | -0.16918 | 217 ft | 7 kts | 259° |
| 2026-04-16 15:14 | 51.15030 | -0.17450 | 216 ft | 105 kts | 258° |
| 2026-04-16 15:14 | 51.14803 | -0.19133 | 278 ft | 199 kts | 254° |
| 2026-04-16 15:14 | 51.14460 | -0.21455 | 1461 ft | 220 kts | 254° |
| 2026-04-16 15:15 | 51.14062 | -0.23851 | 3016 ft | 217 kts | 252° |